Mayport Ns (Adm David L. Mcdonald Field) Airport
KNRB : rendu visible

Aérodrome :











RETROUVEZ-NOUS SUR...

 
LOGIN :

S'inscrire | Disclaimer

   EN    FR    IT 

 









Légende :    VFR   VFR Marginal   IFR   IFR Intensif   IFR Très Intensif
Visi : 
Plafond : 
>= 8 km
>= 3000ft
5 à 8 km
1000 à 3000 ft
1500m à 5 km
500 à 1000 ft
800 à 1500m
200 à 500 ft
< 800m
< 200 ft
Symboles :   Orages  Brouillard  Fortes neiges  Fortes précipitations  Vent > 20 kt






- Altitude de l'aérodrome : 15 ft


KNRB - Mayport Ns (Adm David L. Mcdonald Field)

DERNIER METAR :
  • 301552Z AUTO 25008KT 10SM FEW028 SCT034 29/22 A3002 RMK AO2 SLP166 T02890217 $

METARs EXPIRÉS :
  • 301352Z AUTO 26006KT 10SM CLR 27/23 A3004 RMK AO2 SLP172 T02670228 $

TAF TAF KNRB
Valide du 29 à 23h jusqu'au 30 à 23h UTC


2923/3023 VRB05KT 9000 -RA BR SCT015 BKN120 OVC250 QNH3000INS
FM300100 VRB05KT 9999 VCSH SCT030 SCT120 BKN250 QNH2998INS
FM301000 23005KT 9999 VCSH SCT015 BKN250 QNH2998INS
FM301700 16010KT 9999 VCTS SCT030CB BKN040 OVC250 QNH2992INS LAST NO AMDS TIL 0107 AUTOMATED SENSOR METWATCH 2922 TIL 0109 T22/3011Z T29/3019Z FN20021
FIR KZJX / Amérique du Nord



MET'MAP, la Météo Aéronautique d'un coup d'oeil ! - Copyright ORBIFLY Décembre 2007 - Disclaimer

ORBIFLY MET'MAP TEAM :

Programmation & Développement : Alexandra Zaïnal
Sur une idée originale de : Baudouin d'Aumeries
Assistance à la programmation : Marc-Olivier Méhu
Soutien technique & logistique : Manuel Goepfert

Contact : metmap@orbifly.com




SOURCES & CREDITS :

   NOAA       Earth
Advisory